Tropical Cyclones
[Index]
Main Index Home Page Stock Weather Photos Extreme Storms Discussion Storm News and Storm Chasing Reports Tropical Cyclones / Hurricanes / Typhoons Weather Data and Links Wild Fires / Bushfires Weather Observation Techniques Weather Picture Catalogue Tornado Pictures and Reports Stock Video Footage and DVDs for sale
Season 1984-1985 Tropical Cyclone 198524 Track Map
Season 1984-1985 Summaries: [BoM-AU] [JTWC-AU] [JTWC-SIO] [JTWC-SPAC] [JTWC-SH]
<<- Previous TC | JTWC 1984-1985 Season | Next TC ->>

click for intensity scale information  Lat/long Grid: Show Hide

 Date Labels: Show Hide

Joint Typhoon Warning Centre Cyclone Data

Name: 198524

16 Feb 1985 06:00 UTC to 26 Feb 1985 06:00 UTC

    date/time    lat    long     hPa   cat  kts
1985-02-16 06   12.6   124.3                  30          
1985-02-16 12   13.1   123.2                  25          
1985-02-16 18   13.4   122.3                  25          
1985-02-17 00   13.6   121.5                  25          
1985-02-17 06   13.8   120.8                  25          
1985-02-17 12   13.9   119.9                  25          
1985-02-17 18   14.0   119.1                  30          
1985-02-18 00   14.2   118.5                  30          
1985-02-18 06   14.4   117.9                  30          
1985-02-18 12   14.7   117.4                  30          
1985-02-18 18   15.0   116.9                  35          
1985-02-19 00   15.1   116.3            1     40          
1985-02-19 06   15.2   115.6            1     45          
1985-02-19 12   15.2   114.8            1     50          
1985-02-19 18   15.3   114.0            2     55          
1985-02-20 00   15.3   113.2            2     60          
1985-02-20 06   15.4   112.3            2     65          
1985-02-20 12   15.5   111.5            2     70          
1985-02-20 18   15.6   110.6            3     75          
1985-02-21 00   15.7   109.7            2     70          
1985-02-21 06   15.9   108.8            2     65          
1985-02-21 12   16.1   107.7            2     65          
1985-02-21 18   16.3   106.5            2     60          
1985-02-22 00   16.6   105.4            2     55          
1985-02-22 06   16.9   104.3            2     55          
1985-02-22 12   17.3   103.5            2     55          
1985-02-22 18   17.8   102.7            2     55          
1985-02-23 00   18.4   102.0            2     55          
1985-02-23 06   19.2   101.2            2     55          
1985-02-23 12   20.0   100.3            2     55          
1985-02-23 18   20.9    99.4            2     55          
1985-02-24 00   21.8    98.5            2     55          
1985-02-24 06   22.8    97.5            2     55          
1985-02-24 12   23.8    96.6            2     55          
1985-02-24 18   24.8    95.7            1     50          
1985-02-25 00   26.0    95.3            1     50          
1985-02-25 06   27.3    95.3            1     50          
1985-02-25 12   28.6    95.4            1     50          
1985-02-25 18   29.9    95.8            1     45          
1985-02-26 00   31.5    96.5            1     45          
1985-02-26 06   33.5    97.6            1     45          
Winds are 1-min average.

Tropical cyclone tracks developed by Michael Bath using data from the Joint Typhoon Warning Centre Best Tracks and Google Maps.


[Australian Severe Weather index] [Copyright Notice] [Email Contacts] [Search This Site] [Privacy Policy]
Document: tropical_cyclone_198524.htm Updated: 18 September 2016